sensor_id;sensor_type;location;lat;lon;timestamp;temperature;humidity
51613;DHT22;37694;51.748;14.326;2023-03-11T00:01:51;23.50;40.20
51613;DHT22;37694;51.748;14.326;2023-03-11T00:04:17;23.50;40.30
51613;DHT22;37694;51.748;14.326;2023-03-11T00:06:43;23.40;40.20
51613;DHT22;37694;51.748;14.326;2023-03-11T00:09:08;23.50;40.30
51613;DHT22;37694;51.748;14.326;2023-03-11T00:11:34;23.40;40.30
51613;DHT22;37694;51.748;14.326;2023-03-11T00:14:00;23.40;40.20
51613;DHT22;37694;51.748;14.326;2023-03-11T00:16:26;23.40;40.30
51613;DHT22;37694;51.748;14.326;2023-03-11T00:18:51;23.40;40.30
51613;DHT22;37694;51.748;14.326;2023-03-11T00:21:18;23.40;40.20
51613;DHT22;37694;51.748;14.326;2023-03-11T00:23:45;23.40;40.20
51613;DHT22;37694;51.748;14.326;2023-03-11T00:26:11;23.30;40.20
51613;DHT22;37694;51.748;14.326;2023-03-11T00:28:36;23.30;40.30
51613;DHT22;37694;51.748;14.326;2023-03-11T00:31:03;23.30;40.20
51613;DHT22;37694;51.748;14.326;2023-03-11T00:33:28;23.30;40.30
51613;DHT22;37694;51.748;14.326;2023-03-11T00:35:54;23.30;40.20
51613;DHT22;37694;51.748;14.326;2023-03-11T00:38:20;23.30;40.40
51613;DHT22;37694;51.748;14.326;2023-03-11T00:40:46;23.20;40.20
51613;DHT22;37694;51.748;14.326;2023-03-11T00:43:13;23.20;40.30
51613;DHT22;37694;51.748;14.326;2023-03-11T00:45:39;23.20;40.30
51613;DHT22;37694;51.748;14.326;2023-03-11T00:48:06;23.20;40.30
51613;DHT22;37694;51.748;14.326;2023-03-11T00:50:34;23.10;40.20
51613;DHT22;37694;51.748;14.326;2023-03-11T00:53:00;23.10;40.30
51613;DHT22;37694;51.748;14.326;2023-03-11T00:55:28;23.10;40.30
51613;DHT22;37694;51.748;14.326;2023-03-11T00:58:00;23.10;40.30
51613;DHT22;37694;51.748;14.326;2023-03-11T01:00:28;23.10;40.30
51613;DHT22;37694;51.748;14.326;2023-03-11T01:02:55;23.00;40.20
51613;DHT22;37694;51.748;14.326;2023-03-11T01:05:24;23.00;40.30
51613;DHT22;37694;51.748;14.326;2023-03-11T01:07:50;23.00;40.20
51613;DHT22;37694;51.748;14.326;2023-03-11T01:10:16;23.00;40.20
51613;DHT22;37694;51.748;14.326;2023-03-11T01:12:42;23.00;40.10
51613;DHT22;37694;51.748;14.326;2023-03-11T01:15:14;23.00;40.10
51613;DHT22;37694;51.748;14.326;2023-03-11T01:17:40;22.90;40.10
51613;DHT22;37694;51.748;14.326;2023-03-11T01:20:06;22.90;40.20
51613;DHT22;37694;51.748;14.326;2023-03-11T01:22:34;22.90;40.20
51613;DHT22;37694;51.748;14.326;2023-03-11T01:25:00;22.90;40.20
51613;DHT22;37694;51.748;14.326;2023-03-11T01:27:25;22.90;40.20
51613;DHT22;37694;51.748;14.326;2023-03-11T01:29:52;22.90;40.20
51613;DHT22;37694;51.748;14.326;2023-03-11T01:32:18;22.90;40.20
51613;DHT22;37694;51.748;14.326;2023-03-11T01:34:44;22.90;40.20
51613;DHT22;37694;51.748;14.326;2023-03-11T01:37:09;22.90;40.20
51613;DHT22;37694;51.748;14.326;2023-03-11T01:39:35;22.80;40.20
51613;DHT22;37694;51.748;14.326;2023-03-11T01:42:01;22.80;40.20
51613;DHT22;37694;51.748;14.326;2023-03-11T01:44:26;22.80;40.20
51613;DHT22;37694;51.748;14.326;2023-03-11T01:49:19;22.70;40.20
51613;DHT22;37694;51.748;14.326;2023-03-11T01:51:47;22.70;40.30
51613;DHT22;37694;51.748;14.326;2023-03-11T01:54:27;22.70;40.30
51613;DHT22;37694;51.748;14.326;2023-03-11T01:56:55;22.70;40.20
51613;DHT22;37694;51.748;14.326;2023-03-11T01:59:28;22.70;40.40
51613;DHT22;37694;51.748;14.326;2023-03-11T02:04:33;22.60;40.20
51613;DHT22;37694;51.748;14.326;2023-03-11T02:07:00;22.60;40.40
51613;DHT22;37694;51.748;14.326;2023-03-11T02:09:26;22.60;40.40
51613;DHT22;37694;51.748;14.326;2023-03-11T02:11:52;22.60;40.40
51613;DHT22;37694;51.748;14.326;2023-03-11T02:14:19;22.60;40.40
51613;DHT22;37694;51.748;14.326;2023-03-11T02:16:45;22.60;40.50
51613;DHT22;37694;51.748;14.326;2023-03-11T02:19:27;22.60;40.50
51613;DHT22;37694;51.748;14.326;2023-03-11T02:21:53;22.50;40.30
51613;DHT22;37694;51.748;14.326;2023-03-11T02:27:11;22.50;40.30
51613;DHT22;37694;51.748;14.326;2023-03-11T02:29:38;22.50;40.40
51613;DHT22;37694;51.748;14.326;2023-03-11T02:32:07;22.50;40.30
51613;DHT22;37694;51.748;14.326;2023-03-11T02:34:36;22.50;40.40
51613;DHT22;37694;51.748;14.326;2023-03-11T02:37:07;22.40;40.30
51613;DHT22;37694;51.748;14.326;2023-03-11T02:42:01;22.40;40.30
51613;DHT22;37694;51.748;14.326;2023-03-11T02:44:29;22.40;40.30
51613;DHT22;37694;51.748;14.326;2023-03-11T02:46:55;22.40;40.30
51613;DHT22;37694;51.748;14.326;2023-03-11T02:49:21;22.40;40.40
51613;DHT22;37694;51.748;14.326;2023-03-11T02:51:47;22.40;40.40
51613;DHT22;37694;51.748;14.326;2023-03-11T02:54:13;22.40;40.40
51613;DHT22;37694;51.748;14.326;2023-03-11T02:56:38;22.40;40.40
51613;DHT22;37694;51.748;14.326;2023-03-11T02:59:04;22.30;40.50
51613;DHT22;37694;51.748;14.326;2023-03-11T03:01:30;22.30;40.50
51613;DHT22;37694;51.748;14.326;2023-03-11T03:03:56;22.30;40.50
51613;DHT22;37694;51.748;14.326;2023-03-11T03:06:22;22.30;40.40
51613;DHT22;37694;51.748;14.326;2023-03-11T03:08:49;22.30;40.60
51613;DHT22;37694;51.748;14.326;2023-03-11T03:11:15;22.30;40.50
51613;DHT22;37694;51.748;14.326;2023-03-11T03:13:40;22.30;40.50
51613;DHT22;37694;51.748;14.326;2023-03-11T03:16:06;22.20;40.40
51613;DHT22;37694;51.748;14.326;2023-03-11T03:18:32;22.20;40.50
51613;DHT22;37694;51.748;14.326;2023-03-11T03:20:58;22.20;40.60
51613;DHT22;37694;51.748;14.326;2023-03-11T03:23:24;22.20;40.50
51613;DHT22;37694;51.748;14.326;2023-03-11T03:25:49;22.20;40.60
51613;DHT22;37694;51.748;14.326;2023-03-11T03:28:15;22.10;40.50
51613;DHT22;37694;51.748;14.326;2023-03-11T03:30:41;22.10;40.50
51613;DHT22;37694;51.748;14.326;2023-03-11T03:33:07;22.10;40.40
51613;DHT22;37694;51.748;14.326;2023-03-11T03:35:33;22.10;40.40
51613;DHT22;37694;51.748;14.326;2023-03-11T03:38:00;22.10;40.50
51613;DHT22;37694;51.748;14.326;2023-03-11T03:40:26;22.10;40.60
51613;DHT22;37694;51.748;14.326;2023-03-11T03:42:51;22.10;40.60
51613;DHT22;37694;51.748;14.326;2023-03-11T03:45:17;22.10;40.50
51613;DHT22;37694;51.748;14.326;2023-03-11T03:47:43;22.10;40.60
51613;DHT22;37694;51.748;14.326;2023-03-11T03:50:10;22.10;40.50
51613;DHT22;37694;51.748;14.326;2023-03-11T03:52:36;22.10;40.50
51613;DHT22;37694;51.748;14.326;2023-03-11T03:55:03;22.00;40.40
51613;DHT22;37694;51.748;14.326;2023-03-11T03:57:30;22.00;40.40
51613;DHT22;37694;51.748;14.326;2023-03-11T03:59:55;22.00;40.40
51613;DHT22;37694;51.748;14.326;2023-03-11T04:02:21;22.00;40.50
51613;DHT22;37694;51.748;14.326;2023-03-11T04:04:47;22.00;40.50
51613;DHT22;37694;51.748;14.326;2023-03-11T04:07:13;22.00;40.40
51613;DHT22;37694;51.748;14.326;2023-03-11T04:09:40;22.00;40.50
51613;DHT22;37694;51.748;14.326;2023-03-11T04:12:06;22.00;40.40
51613;DHT22;37694;51.748;14.326;2023-03-11T04:14:32;21.90;40.40
51613;DHT22;37694;51.748;14.326;2023-03-11T04:16:57;21.90;40.40
51613;DHT22;37694;51.748;14.326;2023-03-11T04:19:24;21.90;40.50
51613;DHT22;37694;51.748;14.326;2023-03-11T04:21:49;21.90;40.40
51613;DHT22;37694;51.748;14.326;2023-03-11T04:24:17;21.90;40.50
51613;DHT22;37694;51.748;14.326;2023-03-11T04:26:43;21.90;40.60
51613;DHT22;37694;51.748;14.326;2023-03-11T04:29:09;21.90;40.60
51613;DHT22;37694;51.748;14.326;2023-03-11T04:31:35;21.80;40.60
51613;DHT22;37694;51.748;14.326;2023-03-11T04:34:00;21.90;40.60
51613;DHT22;37694;51.748;14.326;2023-03-11T04:36:26;21.80;40.60
51613;DHT22;37694;51.748;14.326;2023-03-11T04:38:52;21.80;40.70
51613;DHT22;37694;51.748;14.326;2023-03-11T04:41:19;21.80;40.50
51613;DHT22;37694;51.748;14.326;2023-03-11T04:43:45;21.80;40.50
51613;DHT22;37694;51.748;14.326;2023-03-11T04:46:10;21.80;40.50
51613;DHT22;37694;51.748;14.326;2023-03-11T04:48:36;21.80;40.60
51613;DHT22;37694;51.748;14.326;2023-03-11T04:51:02;21.80;40.60
51613;DHT22;37694;51.748;14.326;2023-03-11T04:53:28;21.80;40.50
51613;DHT22;37694;51.748;14.326;2023-03-11T04:55:53;21.70;40.60
51613;DHT22;37694;51.748;14.326;2023-03-11T04:58:19;21.70;40.60
51613;DHT22;37694;51.748;14.326;2023-03-11T05:00:45;21.70;40.60
51613;DHT22;37694;51.748;14.326;2023-03-11T05:03:11;21.70;40.60
51613;DHT22;37694;51.748;14.326;2023-03-11T05:05:37;21.70;40.60
51613;DHT22;37694;51.748;14.326;2023-03-11T05:08:03;21.70;40.60
51613;DHT22;37694;51.748;14.326;2023-03-11T05:10:29;21.70;40.60
51613;DHT22;37694;51.748;14.326;2023-03-11T05:12:54;21.60;40.80
51613;DHT22;37694;51.748;14.326;2023-03-11T05:15:20;21.60;40.80
51613;DHT22;37694;51.748;14.326;2023-03-11T05:17:46;21.60;40.80
51613;DHT22;37694;51.748;14.326;2023-03-11T05:20:12;21.60;40.80
51613;DHT22;37694;51.748;14.326;2023-03-11T05:22:38;21.60;40.90
51613;DHT22;37694;51.748;14.326;2023-03-11T05:25:05;21.60;40.90
51613;DHT22;37694;51.748;14.326;2023-03-11T05:27:31;21.60;40.80
51613;DHT22;37694;51.748;14.326;2023-03-11T05:29:57;21.70;41.20
51613;DHT22;37694;51.748;14.326;2023-03-11T05:32:22;21.70;41.00
51613;DHT22;37694;51.748;14.326;2023-03-11T05:34:48;21.70;40.90
51613;DHT22;37694;51.748;14.326;2023-03-11T05:37:14;21.60;40.90
51613;DHT22;37694;51.748;14.326;2023-03-11T05:39:40;21.60;40.90
51613;DHT22;37694;51.748;14.326;2023-03-11T05:42:06;21.70;40.90
51613;DHT22;37694;51.748;14.326;2023-03-11T05:44:33;21.70;40.90
51613;DHT22;37694;51.748;14.326;2023-03-11T05:46:59;21.60;40.80
51613;DHT22;37694;51.748;14.326;2023-03-11T05:49:25;21.60;40.90
51613;DHT22;37694;51.748;14.326;2023-03-11T05:51:51;21.60;40.80
51613;DHT22;37694;51.748;14.326;2023-03-11T05:54:18;21.60;40.80
51613;DHT22;37694;51.748;14.326;2023-03-11T05:56:45;21.60;40.80
51613;DHT22;37694;51.748;14.326;2023-03-11T05:59:12;21.60;40.80
51613;DHT22;37694;51.748;14.326;2023-03-11T06:01:38;21.60;40.70
51613;DHT22;37694;51.748;14.326;2023-03-11T06:04:04;21.60;40.70
51613;DHT22;37694;51.748;14.326;2023-03-11T06:06:30;21.60;40.80
51613;DHT22;37694;51.748;14.326;2023-03-11T06:08:56;21.60;40.90
51613;DHT22;37694;51.748;14.326;2023-03-11T06:11:22;21.60;41.00
51613;DHT22;37694;51.748;14.326;2023-03-11T06:13:52;21.60;41.20
51613;DHT22;37694;51.748;14.326;2023-03-11T06:16:22;21.60;41.20
51613;DHT22;37694;51.748;14.326;2023-03-11T06:18:48;21.60;41.40
51613;DHT22;37694;51.748;14.326;2023-03-11T06:21:17;21.60;42.10
51613;DHT22;37694;51.748;14.326;2023-03-11T06:23:42;21.60;42.00
51613;DHT22;37694;51.748;14.326;2023-03-11T06:26:11;21.60;42.00
51613;DHT22;37694;51.748;14.326;2023-03-11T06:28:38;21.60;42.00
51613;DHT22;37694;51.748;14.326;2023-03-11T06:31:30;21.60;42.10
51613;DHT22;37694;51.748;14.326;2023-03-11T06:33:56;21.70;42.20
51613;DHT22;37694;51.748;14.326;2023-03-11T06:36:24;21.60;42.20
51613;DHT22;37694;51.748;14.326;2023-03-11T06:38:53;21.70;42.20
51613;DHT22;37694;51.748;14.326;2023-03-11T06:41:19;21.70;42.40
51613;DHT22;37694;51.748;14.326;2023-03-11T06:43:44;21.80;42.20
51613;DHT22;37694;51.748;14.326;2023-03-11T06:46:19;21.90;42.10
51613;DHT22;37694;51.748;14.326;2023-03-11T06:48:45;21.90;42.00
51613;DHT22;37694;51.748;14.326;2023-03-11T06:51:12;22.10;42.00
51613;DHT22;37694;51.748;14.326;2023-03-11T06:53:38;22.20;41.80
51613;DHT22;37694;51.748;14.326;2023-03-11T06:56:07;22.30;41.90
51613;DHT22;37694;51.748;14.326;2023-03-11T06:58:34;22.40;41.70
51613;DHT22;37694;51.748;14.326;2023-03-11T07:01:11;22.50;41.90
51613;DHT22;37694;51.748;14.326;2023-03-11T07:03:37;22.50;41.80
51613;DHT22;37694;51.748;14.326;2023-03-11T07:06:03;22.60;41.60
51613;DHT22;37694;51.748;14.326;2023-03-11T07:08:28;22.60;41.40
51613;DHT22;37694;51.748;14.326;2023-03-11T07:11:05;22.70;41.40
51613;DHT22;37694;51.748;14.326;2023-03-11T07:13:32;22.80;41.30
51613;DHT22;37694;51.748;14.326;2023-03-11T07:16:07;22.80;41.20
51613;DHT22;37694;51.748;14.326;2023-03-11T07:18:34;22.80;41.20
51613;DHT22;37694;51.748;14.326;2023-03-11T07:21:02;22.90;41.20
51613;DHT22;37694;51.748;14.326;2023-03-11T07:23:28;22.90;41.10
51613;DHT22;37694;51.748;14.326;2023-03-11T07:25:54;22.90;41.10
51613;DHT22;37694;51.748;14.326;2023-03-11T07:28:24;23.00;41.20
51613;DHT22;37694;51.748;14.326;2023-03-11T07:30:50;23.10;41.10
51613;DHT22;37694;51.748;14.326;2023-03-11T07:33:16;23.10;41.00
51613;DHT22;37694;51.748;14.326;2023-03-11T07:35:42;23.20;41.00
51613;DHT22;37694;51.748;14.326;2023-03-11T07:38:09;23.30;40.90
51613;DHT22;37694;51.748;14.326;2023-03-11T07:40:34;23.40;40.80
51613;DHT22;37694;51.748;14.326;2023-03-11T07:43:00;23.50;40.80
51613;DHT22;37694;51.748;14.326;2023-03-11T07:45:26;23.70;40.80
51613;DHT22;37694;51.748;14.326;2023-03-11T07:47:52;23.70;40.50
51613;DHT22;37694;51.748;14.326;2023-03-11T07:50:17;23.90;40.70
51613;DHT22;37694;51.748;14.326;2023-03-11T07:52:46;23.90;40.50
51613;DHT22;37694;51.748;14.326;2023-03-11T07:55:12;24.00;40.70
51613;DHT22;37694;51.748;14.326;2023-03-11T07:57:38;24.10;40.50
51613;DHT22;37694;51.748;14.326;2023-03-11T08:00:04;24.10;41.30
51613;DHT22;37694;51.748;14.326;2023-03-11T08:02:30;24.20;40.50
51613;DHT22;37694;51.748;14.326;2023-03-11T08:04:56;24.20;40.60
51613;DHT22;37694;51.748;14.326;2023-03-11T08:07:21;24.20;40.60
51613;DHT22;37694;51.748;14.326;2023-03-11T08:09:47;24.30;40.60
51613;DHT22;37694;51.748;14.326;2023-03-11T08:12:14;24.30;40.50
51613;DHT22;37694;51.748;14.326;2023-03-11T08:14:39;24.30;40.60
51613;DHT22;37694;51.748;14.326;2023-03-11T08:17:05;24.30;40.50
51613;DHT22;37694;51.748;14.326;2023-03-11T08:19:31;24.30;41.40
51613;DHT22;37694;51.748;14.326;2023-03-11T08:21:57;24.30;40.50
51613;DHT22;37694;51.748;14.326;2023-03-11T08:24:25;24.30;40.30
51613;DHT22;37694;51.748;14.326;2023-03-11T08:26:50;24.20;40.40
51613;DHT22;37694;51.748;14.326;2023-03-11T08:29:16;24.20;40.30
51613;DHT22;37694;51.748;14.326;2023-03-11T08:31:42;24.20;40.50
51613;DHT22;37694;51.748;14.326;2023-03-11T08:34:09;24.20;40.50
51613;DHT22;37694;51.748;14.326;2023-03-11T08:36:35;24.10;40.30
51613;DHT22;37694;51.748;14.326;2023-03-11T08:39:01;24.10;40.40
51613;DHT22;37694;51.748;14.326;2023-03-11T08:41:27;24.10;40.40
51613;DHT22;37694;51.748;14.326;2023-03-11T08:43:53;24.10;40.40
51613;DHT22;37694;51.748;14.326;2023-03-11T08:46:26;24.00;40.50
51613;DHT22;37694;51.748;14.326;2023-03-11T08:48:52;24.00;40.50
51613;DHT22;37694;51.748;14.326;2023-03-11T08:51:19;24.00;40.30
51613;DHT22;37694;51.748;14.326;2023-03-11T08:53:45;23.90;40.00
51613;DHT22;37694;51.748;14.326;2023-03-11T08:56:11;23.90;39.90
51613;DHT22;37694;51.748;14.326;2023-03-11T08:58:37;23.90;39.80
51613;DHT22;37694;51.748;14.326;2023-03-11T09:01:03;23.90;39.60
51613;DHT22;37694;51.748;14.326;2023-03-11T09:03:33;23.80;39.50
51613;DHT22;37694;51.748;14.326;2023-03-11T09:06:01;23.80;39.50
51613;DHT22;37694;51.748;14.326;2023-03-11T09:08:28;23.70;39.30
51613;DHT22;37694;51.748;14.326;2023-03-11T09:10:54;23.70;39.60
51613;DHT22;37694;51.748;14.326;2023-03-11T09:13:20;23.70;39.30
51613;DHT22;37694;51.748;14.326;2023-03-11T09:15:47;23.60;39.20
51613;DHT22;37694;51.748;14.326;2023-03-11T09:18:14;23.60;39.20
51613;DHT22;37694;51.748;14.326;2023-03-11T09:20:41;23.60;39.20
51613;DHT22;37694;51.748;14.326;2023-03-11T09:23:09;23.60;39.10
51613;DHT22;37694;51.748;14.326;2023-03-11T09:25:35;23.60;39.10
51613;DHT22;37694;51.748;14.326;2023-03-11T09:28:00;23.60;39.10
51613;DHT22;37694;51.748;14.326;2023-03-11T09:30:26;23.50;39.10
51613;DHT22;37694;51.748;14.326;2023-03-11T09:32:52;23.50;39.00
51613;DHT22;37694;51.748;14.326;2023-03-11T09:35:17;23.50;39.10
51613;DHT22;37694;51.748;14.326;2023-03-11T09:37:43;23.40;39.00
51613;DHT22;37694;51.748;14.326;2023-03-11T09:40:16;23.40;39.10
51613;DHT22;37694;51.748;14.326;2023-03-11T09:43:06;23.40;39.00
51613;DHT22;37694;51.748;14.326;2023-03-11T09:45:41;23.40;39.10
51613;DHT22;37694;51.748;14.326;2023-03-11T09:51:04;23.40;39.10
51613;DHT22;37694;51.748;14.326;2023-03-11T09:53:42;23.40;39.10
51613;DHT22;37694;51.748;14.326;2023-03-11T09:56:11;23.50;39.10
51613;DHT22;37694;51.748;14.326;2023-03-11T09:58:42;23.50;39.20
51613;DHT22;37694;51.748;14.326;2023-03-11T10:01:31;23.50;39.00
51613;DHT22;37694;51.748;14.326;2023-03-11T10:06:32;23.60;39.20
51613;DHT22;37694;51.748;14.326;2023-03-11T10:28:34;23.70;39.10
51613;DHT22;37694;51.748;14.326;2023-03-11T10:31:21;23.70;39.30
51613;DHT22;37694;51.748;14.326;2023-03-11T10:33:58;23.80;39.30
51613;DHT22;37694;51.748;14.326;2023-03-11T10:36:41;23.70;39.30
51613;DHT22;37694;51.748;14.326;2023-03-11T10:39:10;23.70;39.50
51613;DHT22;37694;51.748;14.326;2023-03-11T10:41:49;23.70;39.60
51613;DHT22;37694;51.748;14.326;2023-03-11T10:44:28;23.70;39.70
51613;DHT22;37694;51.748;14.326;2023-03-11T10:46:55;23.70;40.00
51613;DHT22;37694;51.748;14.326;2023-03-11T10:49:21;23.70;40.10
51613;DHT22;37694;51.748;14.326;2023-03-11T10:51:49;23.70;40.00
51613;DHT22;37694;51.748;14.326;2023-03-11T10:54:30;23.60;40.20
51613;DHT22;37694;51.748;14.326;2023-03-11T10:57:01;23.60;40.40
51613;DHT22;37694;51.748;14.326;2023-03-11T10:59:47;23.60;40.60
51613;DHT22;37694;51.748;14.326;2023-03-11T11:02:32;23.60;40.50
51613;DHT22;37694;51.748;14.326;2023-03-11T11:05:30;23.60;40.30
51613;DHT22;37694;51.748;14.326;2023-03-11T11:08:11;23.60;44.40
51613;DHT22;37694;51.748;14.326;2023-03-11T11:10:59;23.60;45.20
51613;DHT22;37694;51.748;14.326;2023-03-11T11:13:30;23.50;44.30
51613;DHT22;37694;51.748;14.326;2023-03-11T11:15:59;23.60;43.90
51613;DHT22;37694;51.748;14.326;2023-03-11T11:18:41;23.60;43.40
51613;DHT22;37694;51.748;14.326;2023-03-11T11:21:16;23.60;43.40
51613;DHT22;37694;51.748;14.326;2023-03-11T11:29:44;23.50;43.60
51613;DHT22;37694;51.748;14.326;2023-03-11T11:32:18;23.50;44.40
51613;DHT22;37694;51.748;14.326;2023-03-11T11:35:12;23.60;42.90
51613;DHT22;37694;51.748;14.326;2023-03-11T11:37:41;23.50;42.80
51613;DHT22;37694;51.748;14.326;2023-03-11T11:42:51;23.50;42.90
51613;DHT22;37694;51.748;14.326;2023-03-11T11:45:42;23.50;42.90
51613;DHT22;37694;51.748;14.326;2023-03-11T11:48:23;23.50;42.60
51613;DHT22;37694;51.748;14.326;2023-03-11T11:50:54;23.50;42.50
51613;DHT22;37694;51.748;14.326;2023-03-11T11:53:35;23.50;42.30
51613;DHT22;37694;51.748;14.326;2023-03-11T11:56:02;23.50;42.20
51613;DHT22;37694;51.748;14.326;2023-03-11T11:58:29;23.50;42.20
51613;DHT22;37694;51.748;14.326;2023-03-11T12:03:52;23.50;42.00
51613;DHT22;37694;51.748;14.326;2023-03-11T12:11:42;23.50;41.50
51613;DHT22;37694;51.748;14.326;2023-03-11T12:14:23;23.40;41.50
51613;DHT22;37694;51.748;14.326;2023-03-11T12:17:00;23.40;41.90
51613;DHT22;37694;51.748;14.326;2023-03-11T12:19:42;23.40;41.70
51613;DHT22;37694;51.748;14.326;2023-03-11T12:30:32;23.40;42.00
51613;DHT22;37694;51.748;14.326;2023-03-11T12:33:18;23.40;42.00
51613;DHT22;37694;51.748;14.326;2023-03-11T12:35:52;23.40;42.30
51613;DHT22;37694;51.748;14.326;2023-03-11T12:50:58;23.60;42.90
51613;DHT22;37694;51.748;14.326;2023-03-11T12:53:53;23.60;43.00
51613;DHT22;37694;51.748;14.326;2023-03-11T12:56:36;23.60;43.30
51613;DHT22;37694;51.748;14.326;2023-03-11T13:09:44;23.90;43.50
51613;DHT22;37694;51.748;14.326;2023-03-11T13:12:45;23.90;43.40
51613;DHT22;37694;51.748;14.326;2023-03-11T13:17:59;23.90;43.30
51613;DHT22;37694;51.748;14.326;2023-03-11T13:20:41;23.90;43.60
51613;DHT22;37694;51.748;14.326;2023-03-11T13:23:30;23.90;43.50
51613;DHT22;37694;51.748;14.326;2023-03-11T13:28:49;23.70;39.40
51613;DHT22;37694;51.748;14.326;2023-03-11T13:44:50;23.30;37.80
51613;DHT22;37694;51.748;14.326;2023-03-11T13:47:17;23.30;37.70
51613;DHT22;37694;51.748;14.326;2023-03-11T13:52:28;23.30;38.60
51613;DHT22;37694;51.748;14.326;2023-03-11T13:55:00;23.30;39.10
51613;DHT22;37694;51.748;14.326;2023-03-11T13:57:35;23.40;39.40
51613;DHT22;37694;51.748;14.326;2023-03-11T14:00:16;23.40;39.90
51613;DHT22;37694;51.748;14.326;2023-03-11T14:03:11;23.50;40.10
51613;DHT22;37694;51.748;14.326;2023-03-11T14:05:44;23.60;40.60
51613;DHT22;37694;51.748;14.326;2023-03-11T14:08:31;23.70;40.80
51613;DHT22;37694;51.748;14.326;2023-03-11T14:10:59;23.90;41.10
51613;DHT22;37694;51.748;14.326;2023-03-11T14:13:48;23.90;41.10
51613;DHT22;37694;51.748;14.326;2023-03-11T14:16:28;24.10;41.70
51613;DHT22;37694;51.748;14.326;2023-03-11T14:19:11;24.10;41.50
51613;DHT22;37694;51.748;14.326;2023-03-11T14:21:45;24.20;41.60
51613;DHT22;37694;51.748;14.326;2023-03-11T14:26:45;24.20;41.90
51613;DHT22;37694;51.748;14.326;2023-03-11T14:29:18;24.20;42.00
51613;DHT22;37694;51.748;14.326;2023-03-11T14:31:46;24.30;42.10
51613;DHT22;37694;51.748;14.326;2023-03-11T14:34:15;24.20;42.50
51613;DHT22;37694;51.748;14.326;2023-03-11T14:36:43;24.20;42.70
51613;DHT22;37694;51.748;14.326;2023-03-11T14:39:37;24.30;42.80
51613;DHT22;37694;51.748;14.326;2023-03-11T14:44:49;24.20;42.60
51613;DHT22;37694;51.748;14.326;2023-03-11T14:50:09;24.20;42.60
51613;DHT22;37694;51.748;14.326;2023-03-11T14:52:37;24.10;42.40
51613;DHT22;37694;51.748;14.326;2023-03-11T14:55:09;24.10;43.10
51613;DHT22;37694;51.748;14.326;2023-03-11T14:57:46;24.10;43.30
51613;DHT22;37694;51.748;14.326;2023-03-11T15:00:24;24.10;43.40
51613;DHT22;37694;51.748;14.326;2023-03-11T15:05:32;24.00;42.60
51613;DHT22;37694;51.748;14.326;2023-03-11T15:08:01;24.00;42.10
51613;DHT22;37694;51.748;14.326;2023-03-11T15:10:27;23.90;41.80
51613;DHT22;37694;51.748;14.326;2023-03-11T15:13:05;23.90;42.20
51613;DHT22;37694;51.748;14.326;2023-03-11T15:15:31;23.90;42.40
51613;DHT22;37694;51.748;14.326;2023-03-11T15:17:58;23.80;42.40
51613;DHT22;37694;51.748;14.326;2023-03-11T15:20:28;23.80;41.90
51613;DHT22;37694;51.748;14.326;2023-03-11T15:22:57;23.80;41.70
51613;DHT22;37694;51.748;14.326;2023-03-11T15:25:26;23.70;41.50
51613;DHT22;37694;51.748;14.326;2023-03-11T15:27:52;23.70;41.80
51613;DHT22;37694;51.748;14.326;2023-03-11T15:30:23;23.70;41.80
51613;DHT22;37694;51.748;14.326;2023-03-11T15:32:50;23.60;41.80
51613;DHT22;37694;51.748;14.326;2023-03-11T15:35:29;23.60;41.70
51613;DHT22;37694;51.748;14.326;2023-03-11T15:40:56;23.60;41.80
51613;DHT22;37694;51.748;14.326;2023-03-11T15:43:29;23.50;42.80
51613;DHT22;37694;51.748;14.326;2023-03-11T15:45:57;23.50;42.10
51613;DHT22;37694;51.748;14.326;2023-03-11T15:48:23;23.50;42.10
51613;DHT22;37694;51.748;14.326;2023-03-11T15:50:51;23.40;42.10
51613;DHT22;37694;51.748;14.326;2023-03-11T15:53:18;23.40;42.10
51613;DHT22;37694;51.748;14.326;2023-03-11T15:55:45;23.40;42.50
51613;DHT22;37694;51.748;14.326;2023-03-11T15:58:13;23.40;42.30
51613;DHT22;37694;51.748;14.326;2023-03-11T16:00:46;23.40;43.20
51613;DHT22;37694;51.748;14.326;2023-03-11T16:03:13;23.40;42.70
51613;DHT22;37694;51.748;14.326;2023-03-11T16:05:38;23.30;42.70
51613;DHT22;37694;51.748;14.326;2023-03-11T16:08:04;23.30;42.80
51613;DHT22;37694;51.748;14.326;2023-03-11T16:10:30;23.30;42.60
51613;DHT22;37694;51.748;14.326;2023-03-11T16:12:55;23.20;42.60
51613;DHT22;37694;51.748;14.326;2023-03-11T16:15:30;23.20;42.50
51613;DHT22;37694;51.748;14.326;2023-03-11T16:17:58;23.20;42.60
51613;DHT22;37694;51.748;14.326;2023-03-11T16:20:27;23.20;42.90
51613;DHT22;37694;51.748;14.326;2023-03-11T16:22:55;23.10;42.60
51613;DHT22;37694;51.748;14.326;2023-03-11T16:25:29;23.10;42.70
51613;DHT22;37694;51.748;14.326;2023-03-11T16:27:56;23.10;42.50
51613;DHT22;37694;51.748;14.326;2023-03-11T16:30:23;23.10;42.90
51613;DHT22;37694;51.748;14.326;2023-03-11T16:32:49;23.00;43.60
51613;DHT22;37694;51.748;14.326;2023-03-11T16:35:15;23.00;42.80
51613;DHT22;37694;51.748;14.326;2023-03-11T16:37:41;23.00;43.20
51613;DHT22;37694;51.748;14.326;2023-03-11T16:40:12;23.00;43.10
51613;DHT22;37694;51.748;14.326;2023-03-11T16:42:38;23.00;42.90
51613;DHT22;37694;51.748;14.326;2023-03-11T16:45:04;23.00;43.00
51613;DHT22;37694;51.748;14.326;2023-03-11T16:47:30;23.00;42.80
51613;DHT22;37694;51.748;14.326;2023-03-11T16:49:55;22.90;43.00
51613;DHT22;37694;51.748;14.326;2023-03-11T16:52:21;22.90;42.80
51613;DHT22;37694;51.748;14.326;2023-03-11T16:54:48;22.90;42.90
51613;DHT22;37694;51.748;14.326;2023-03-11T16:57:14;22.80;43.00
51613;DHT22;37694;51.748;14.326;2023-03-11T16:59:40;22.80;43.00
51613;DHT22;37694;51.748;14.326;2023-03-11T17:02:11;22.80;43.20
51613;DHT22;37694;51.748;14.326;2023-03-11T17:04:37;22.80;43.40
51613;DHT22;37694;51.748;14.326;2023-03-11T17:07:04;22.80;43.20
51613;DHT22;37694;51.748;14.326;2023-03-11T17:09:31;22.80;43.30
51613;DHT22;37694;51.748;14.326;2023-03-11T17:11:57;22.80;43.30
51613;DHT22;37694;51.748;14.326;2023-03-11T17:14:22;22.90;44.10
51613;DHT22;37694;51.748;14.326;2023-03-11T17:16:49;22.90;43.20
51613;DHT22;37694;51.748;14.326;2023-03-11T17:19:14;22.90;42.80
51613;DHT22;37694;51.748;14.326;2023-03-11T17:21:40;23.00;42.80
51613;DHT22;37694;51.748;14.326;2023-03-11T17:24:06;23.10;43.30
51613;DHT22;37694;51.748;14.326;2023-03-11T17:26:33;23.20;43.20